Time;durP1;ratioP1;P1;durP2;ratioP2;P2;SDS_P1;SDS_P2;PMS_P1;PMS_P2;Temp;Humidity;BMP_temperature;BMP_pressure;BME280_temperature;BME280_humidity;BME280_pressure;Samples;Min_cycle;Max_cycle;Signal;HPM_P1;HPM_P2
2022/11/20 00:00:52;;;;;;;13.07;10.23;;;;;;;12.33;100.00;100948.91;2072649;28;20507;-61
2022/11/20 00:01:53;;;;;;;11.87;10.67;;;;;;;12.24;100.00;100960.66;2071153;28;20185;-61
2022/11/20 00:02:53;;;;;;;11.33;10.07;;;;;;;12.21;100.00;100957.97;2071469;28;20181;-61
2022/11/20 00:03:55;;;;;;;12.27;10.77;;;;;;;12.28;100.00;100972.47;2071008;28;20217;-61
2022/11/20 00:04:56;;;;;;;11.60;10.40;;;;;;;12.15;100.00;100968.06;2072350;28;20186;-62
2022/11/20 00:06:08;;;;;;;12.87;9.37;;;;;;;12.26;100.00;100993.56;2071735;28;20432;-61
2022/11/20 00:07:08;;;;;;;11.27;9.67;;;;;;;12.26;100.00;100980.47;2071459;28;20193;-61
2022/11/20 00:08:09;;;;;;;10.20;9.20;;;;;;;12.41;100.00;100989.22;2072034;28;20432;-62
2022/11/20 00:09:10;;;;;;;12.07;10.00;;;;;;;11.76;100.00;100898.78;2079534;28;20704;-61
2022/11/20 00:10:10;;;;;;;10.87;9.77;;;;;;;12.37;100.00;100985.75;2079716;28;20562;-61
2022/11/20 00:11:16;;;;;;;10.13;8.93;;;;;;;12.36;100.00;100984.97;2072302;28;20189;-62
2022/11/20 00:12:17;;;;;;;11.20;9.33;;;;;;;12.36;100.00;100990.53;2072522;28;20191;-61
2022/11/20 00:13:17;;;;;;;10.47;9.33;;;;;;;12.41;100.00;100992.75;2071994;28;20480;-61
2022/11/20 00:14:18;;;;;;;11.20;10.00;;;;;;;12.39;100.00;100986.88;2071499;28;20620;-61
2022/11/20 00:15:18;;;;;;;12.97;9.83;;;;;;;12.41;100.00;100978.09;2071749;28;20193;-61
2022/11/20 00:16:22;;;;;;;10.40;9.30;;;;;;;12.40;100.00;100979.31;2072461;28;20182;-61
2022/11/20 00:17:23;;;;;;;11.53;9.33;;;;;;;12.44;100.00;100991.13;2070953;28;20182;-61
2022/11/20 00:18:23;;;;;;;10.57;9.43;;;;;;;12.31;100.00;101001.38;2072656;28;20945;-61
2022/11/20 00:19:24;;;;;;;11.57;9.50;;;;;;;12.28;100.00;100999.47;2071883;28;20652;-61
2022/11/20 00:20:24;;;;;;;11.13;10.03;;;;;;;12.22;100.00;101015.09;2079641;28;20442;-62
2022/11/20 00:21:27;;;;;;;12.23;10.93;;;;;;;12.08;100.00;101015.44;2078748;28;20835;-62
2022/11/20 00:22:27;;;;;;;11.03;9.70;;;;;;;11.32;100.00;100916.06;2072090;28;20256;-62
2022/11/20 00:23:28;;;;;;;10.87;9.50;;;;;;;12.16;100.00;101030.72;2071828;28;20436;-61
2022/11/20 00:24:28;;;;;;;10.00;8.90;;;;;;;12.23;100.00;101033.34;2072169;28;20186;-61
2022/11/20 00:25:28;;;;;;;10.20;9.20;;;;;;;12.28;100.00;101044.72;2071474;28;20184;-62
2022/11/20 00:26:29;;;;;;;9.63;8.63;;;;;;;12.31;100.00;101046.66;2072222;28;20185;-62
2022/11/20 00:27:30;;;;;;;11.13;9.93;;;;;;;12.25;100.00;101047.59;2072569;28;20187;-61
2022/11/20 00:28:30;;;;;;;12.73;9.87;;;;;;;11.41;100.00;100917.03;2071638;28;20441;-62
2022/11/20 00:29:31;;;;;;;11.80;10.57;;;;;;;12.08;100.00;101046.78;2071652;28;20623;-61
2022/11/20 00:30:31;;;;;;;12.13;10.83;;;;;;;11.97;100.00;101039.91;2072133;28;20185;-61
2022/11/20 00:31:33;;;;;;;13.13;10.87;;;;;;;12.03;100.00;101049.28;2071377;28;20225;-61
2022/11/20 00:32:33;;;;;;;12.43;11.23;;;;;;;11.56;100.00;100987.66;2070834;28;20177;-62
2022/11/20 00:33:34;;;;;;;14.50;11.53;;;;;;;11.08;100.00;100928.47;2071866;28;20432;-61
2022/11/20 00:34:34;;;;;;;12.73;11.47;;;;;;;11.80;100.00;101052.19;2072255;28;20181;-60
2022/11/20 00:35:35;;;;;;;13.20;11.80;;;;;;;11.74;100.00;101045.59;2076077;28;20200;-61
2022/11/20 00:36:35;;;;;;;13.93;11.73;;;;;;;11.68;100.00;101041.78;2077046;28;20189;-61
2022/11/20 00:37:36;;;;;;;13.03;11.67;;;;;;;11.67;100.00;101040.97;2071622;28;20583;-61
2022/11/20 00:38:37;;;;;;;13.13;11.83;;;;;;;11.69;100.00;101037.78;2072077;28;20213;-60
2022/11/20 00:39:37;;;;;;;12.90;11.53;;;;;;;11.71;100.00;101036.13;2071804;28;20185;-61
2022/11/20 00:40:37;;;;;;;13.70;11.70;;;;;;;11.72;100.00;101034.91;2071936;28;20676;-60
2022/11/20 00:41:38;;;;;;;13.13;11.80;;;;;;;11.75;100.00;101045.16;2071933;28;20190;-61
2022/11/20 00:42:38;;;;;;;12.83;11.40;;;;;;;11.78;100.00;101049.84;2072373;28;20275;-60
2022/11/20 00:43:39;;;;;;;13.53;12.00;;;;;;;11.74;100.00;101042.81;2071853;28;20190;-61
2022/11/20 00:44:40;;;;;;;12.97;11.60;;;;;;;11.65;100.00;101032.31;2072072;28;20296;-61
2022/11/20 00:45:40;;;;;;;13.73;12.33;;;;;;;11.47;100.00;101006.13;2071589;28;20686;-62
2022/11/20 00:46:40;;;;;;;13.80;12.33;;;;;;;11.67;100.00;101035.41;2072049;28;20220;-62
2022/11/20 00:47:41;;;;;;;14.73;11.60;;;;;;;11.77;100.00;101053.84;2071921;28;20204;-61
2022/11/20 00:48:42;;;;;;;13.27;11.73;;;;;;;11.81;100.00;101062.09;2071522;28;20217;-61
2022/11/20 00:49:42;;;;;;;15.47;13.00;;;;;;;11.78;100.00;101058.19;2070703;28;20710;-61
2022/11/20 00:50:43;;;;;;;13.77;12.17;;;;;;;11.74;100.00;101051.16;2071837;28;20506;-61
2022/11/20 00:51:43;;;;;;;14.87;12.87;;;;;;;11.73;100.00;101047.56;2071570;28;20312;-62
2022/11/20 00:52:44;;;;;;;13.97;12.50;;;;;;;11.74;100.00;101038.03;2071620;28;20197;-60
2022/11/20 00:53:44;;;;;;;16.73;13.33;;;;;;;11.75;100.00;101033.28;2072061;28;20272;-61
2022/11/20 00:54:45;;;;;;;14.70;13.00;;;;;;;11.65;100.00;101028.72;2071867;28;20615;-61
2022/11/20 00:56:00;;;;;;;15.67;13.10;;;;;;;11.61;100.00;101023.25;2070853;28;20204;-62
2022/11/20 00:57:00;;;;;;;15.97;13.63;;;;;;;11.76;100.00;101026.50;2070895;28;20409;-61
2022/11/20 00:58:00;;;;;;;15.20;13.30;;;;;;;11.77;100.00;101020.53;2070732;28;20436;-61
2022/11/20 00:59:01;;;;;;;15.30;13.70;;;;;;;11.80;100.00;101036.34;2071535;28;20268;-61
2022/11/20 01:00:02;;;;;;;15.07;13.47;;;;;;;11.81;100.00;101046.22;2071792;28;20197;-61
2022/11/20 01:01:11;;;;;;;14.53;13.03;;;;;;;11.90;100.00;101040.06;2072027;28;20700;-61
2022/11/20 01:02:11;;;;;;;17.20;13.13;;;;;;;11.96;100.00;101038.34;2071879;28;20475;-61
2022/11/20 01:03:12;;;;;;;14.43;12.80;;;;;;;11.96;100.00;101039.13;2071154;28;20456;-61
2022/11/20 01:04:12;;;;;;;16.70;13.10;;;;;;;11.94;100.00;101035.22;2070689;28;20193;-62
2022/11/20 01:05:13;;;;;;;15.30;12.90;;;;;;;11.96;100.00;101030.00;2071569;28;20221;-61
2022/11/20 01:06:16;;;;;;;14.57;12.63;;;;;;;11.97;100.00;101020.47;2070661;28;20213;-61
2022/11/20 01:07:17;;;;;;;15.37;13.27;;;;;;;11.98;100.00;101022.81;2071638;28;20220;-61
2022/11/20 01:08:17;;;;;;;16.30;13.40;;;;;;;11.96;100.00;101032.78;2071667;28;20432;-61
2022/11/20 01:09:18;;;;;;;15.43;13.83;;;;;;;11.83;100.00;101010.47;2071164;28;20275;-61
2022/11/20 01:10:18;;;;;;;19.37;14.00;;;;;;;11.92;100.00;101027.31;2071997;28;20193;-61
2022/11/20 01:11:22;;;;;;;15.77;13.30;;;;;;;11.93;100.00;101019.78;2071563;28;20194;-61
2022/11/20 01:12:22;;;;;;;15.50;13.90;;;;;;;11.96;100.00;101032.78;2071962;28;20280;-61
2022/11/20 01:13:38;;;;;;;16.33;14.23;;;;;;;11.88;100.00;101023.06;2071505;28;20954;-61
2022/11/20 01:14:39;;;;;;;16.33;14.43;;;;;;;11.90;100.00;101037.28;2071659;28;20685;-62
2022/11/20 01:15:39;;;;;;;16.40;14.70;;;;;;;11.92;100.00;101038.44;2070566;28;21272;-61
2022/11/20 01:16:48;;;;;;;16.67;14.33;;;;;;;11.94;100.00;101038.00;2071302;28;20208;-61
2022/11/20 01:17:48;;;;;;;16.30;14.60;;;;;;;10.91;100.00;100861.06;2071232;28;20288;-61
2022/11/20 01:18:51;;;;;;;16.83;14.47;;;;;;;12.00;100.00;101033.50;2071489;28;20455;-61
2022/11/20 01:19:51;;;;;;;17.80;15.10;;;;;;;12.02;100.00;101034.63;2070499;28;20189;-61
2022/11/20 01:20:52;;;;;;;18.03;14.53;;;;;;;12.02;100.00;101033.84;2071922;28;20428;-61
2022/11/20 01:21:54;;;;;;;18.37;14.47;;;;;;;12.10;100.00;101044.34;2071655;28;20190;-60
2022/11/20 01:22:54;;;;;;;16.00;14.30;;;;;;;11.89;100.00;101007.97;2070955;28;20181;-61
2022/11/20 01:23:55;;;;;;;15.77;14.17;;;;;;;11.98;100.00;101008.13;2071625;28;20436;-61
2022/11/20 01:24:56;;;;;;;14.90;13.40;;;;;;;12.23;100.00;101027.78;2071533;28;20276;-61
2022/11/20 01:25:56;;;;;;;16.27;14.20;;;;;;;12.22;100.00;101010.34;2071303;28;20962;-61
2022/11/20 01:26:57;;;;;;;16.30;14.43;;;;;;;11.85;100.00;100946.97;2071339;28;20724;-61
2022/11/20 01:27:57;;;;;;;16.87;15.00;;;;;;;12.24;100.00;101004.34;2070967;28;20185;-61
2022/11/20 01:28:58;;;;;;;18.23;14.33;;;;;;;12.22;100.00;101015.09;2071392;28;20193;-61
2022/11/20 01:29:59;;;;;;;18.43;14.73;;;;;;;12.30;100.00;101013.72;2071663;28;20191;-61
2022/11/20 01:30:59;;;;;;;16.43;14.67;;;;;;;12.37;100.00;101013.53;2071951;28;20430;-61
2022/11/20 01:32:00;;;;;;;16.60;14.47;;;;;;;12.35;100.00;100988.97;2070301;28;20193;-61
2022/11/20 01:33:00;;;;;;;17.93;14.70;;;;;;;12.41;100.00;100989.22;2071825;28;20204;-61
2022/11/20 01:34:04;;;;;;;18.23;14.93;;;;;;;12.39;100.00;100983.31;2071416;28;20717;-61
2022/11/20 01:35:05;;;;;;;18.27;14.67;;;;;;;11.69;100.00;100882.31;2071485;28;20677;-61
2022/11/20 01:36:06;;;;;;;20.33;16.33;;;;;;;11.81;100.00;100907.38;2071582;28;20828;-61
2022/11/20 01:37:07;;;;;;;17.07;15.27;;;;;;;12.35;100.00;100977.06;2071479;28;20571;-61
2022/11/20 01:38:07;;;;;;;16.30;14.63;;;;;;;12.52;100.00;100986.94;2071516;28;20425;-61
2022/11/20 01:39:16;;;;;;;17.03;14.90;;;;;;;12.56;100.00;100991.19;2071495;28;20623;-62
2022/11/20 01:40:17;;;;;;;18.23;15.60;;;;;;;12.55;100.00;100992.41;2071563;28;20566;-61
2022/11/20 01:43:55;;;;;;;19.70;15.67;;;;;;;12.51;100.00;100982.63;2071176;28;20397;-61
2022/11/20 01:44:59;;;;;;;18.87;15.83;;;;;;;12.52;100.00;100993.31;2073558;28;21271;-61
2022/11/20 01:46:02;;;;;;;18.37;15.37;;;;;;;12.53;100.00;100994.84;2072825;28;20698;-61
2022/11/20 01:47:06;;;;;;;18.27;16.20;;;;;;;12.00;100.00;100911.28;2073355;28;20499;-62
2022/11/20 01:48:07;;;;;;;17.83;15.87;;;;;;;12.47;100.00;100987.47;2072403;28;20450;-61
2022/11/20 01:49:07;;;;;;;18.10;16.17;;;;;;;12.56;100.00;100996.75;2072848;28;20964;-62
2022/11/20 01:50:17;;;;;;;17.87;15.97;;;;;;;12.35;100.00;100965.97;2072876;28;20221;-62
2022/11/20 01:51:34;;;;;;;18.67;16.70;;;;;;;12.53;100.00;100997.63;2072647;28;20205;-60
2022/11/20 01:52:40;;;;;;;18.10;16.20;;;;;;;12.53;100.00;100999.63;2072714;28;20428;-60
2022/11/20 01:53:41;;;;;;;19.20;17.17;;;;;;;11.88;100.00;100900.88;2073166;28;20459;-61
2022/11/20 01:54:49;;;;;;;19.70;17.20;;;;;;;12.53;100.00;100992.06;2073225;28;20535;-61
2022/11/20 01:55:53;;;;;;;22.03;19.10;;;;;;;12.50;100.00;100992.94;2072820;28;20210;-61
2022/11/20 01:56:57;;;;;;;22.17;19.10;;;;;;;12.50;100.00;100983.84;2073299;28;20527;-61
2022/11/20 01:57:59;;;;;;;21.80;19.50;;;;;;;12.53;100.00;100985.72;2073069;28;20454;-61
2022/11/20 01:59:02;;;;;;;22.17;19.50;;;;;;;12.56;100.00;100979.31;2072938;28;21293;-61
2022/11/20 02:00:10;;;;;;;24.17;21.57;;;;;;;12.57;100.00;100978.88;2073094;28;20487;-61
2022/11/20 02:01:11;;;;;;;25.77;22.50;;;;;;;12.53;100.00;100969.84;2072879;28;20424;-61
2022/11/20 02:02:11;;;;;;;27.00;23.37;;;;;;;12.48;100.00;100964.81;2073412;28;20878;-61
2022/11/20 02:03:16;;;;;;;26.70;23.30;;;;;;;12.48;100.00;100961.22;2072971;28;20574;-61
2022/11/20 02:04:17;;;;;;;27.33;24.00;;;;;;;12.61;100.00;100979.53;2072654;28;20222;-61
2022/11/20 02:05:44;;;;;;;27.57;24.40;;;;;;;12.61;100.00;100987.88;2071900;28;20961;-61
2022/11/20 02:07:10;;;;;;;28.20;23.50;;;;;;;12.65;100.00;100990.59;2073630;28;20196;-61
2022/11/20 02:08:12;;;;;;;26.80;22.27;;;;;;;12.53;100.00;100966.25;2072818;28;20429;-61
2022/11/20 02:09:14;;;;;;;28.77;23.47;;;;;;;12.67;100.00;100996.47;2072653;28;20436;-61
2022/11/20 02:10:15;;;;;;;29.60;23.77;;;;;;;12.65;100.00;100993.38;2073197;28;20453;-62
2022/11/20 02:11:15;;;;;;;26.43;23.00;;;;;;;12.70;100.00;100984.50;2073164;28;20513;-61
2022/11/20 02:13:44;;;;;;;27.80;22.93;;;;;;;12.61;100.00;100993.44;2072733;28;20199;-61
2022/11/20 02:14:44;;;;;;;26.73;22.53;;;;;;;12.68;100.00;101006.38;2073154;28;20448;-61
2022/11/20 02:15:46;;;;;;;29.07;25.10;;;;;;;12.27;100.00;100957.03;2072914;28;20446;-61
2022/11/20 02:16:48;;;;;;;29.13;25.67;;;;;;;12.61;100.00;101020.47;2073490;28;20190;-61
2022/11/20 02:17:48;;;;;;;27.90;24.90;;;;;;;12.70;100.00;101035.31;2072715;28;20522;-61
2022/11/20 02:18:50;;;;;;;29.07;25.77;;;;;;;12.69;100.00;101046.88;2073140;28;20551;-61
2022/11/20 02:19:51;;;;;;;29.63;25.93;;;;;;;12.68;100.00;101040.53;2072251;28;20187;-61
2022/11/20 02:20:58;;;;;;;30.30;26.03;;;;;;;12.56;100.00;101026.56;2072066;28;20444;-61
2022/11/20 02:22:19;;;;;;;31.17;27.27;;;;;;;12.47;100.00;101018.06;2072948;28;20205;-61
2022/11/20 02:23:36;;;;;;;30.63;27.07;;;;;;;12.34;100.00;101015.19;2072648;28;20425;-62
2022/11/20 02:24:37;;;;;;;35.40;30.07;;;;;;;12.23;100.00;101003.56;2072261;28;20450;-61
2022/11/20 02:25:39;;;;;;;34.70;30.60;;;;;;;12.11;100.00;101004.25;2072668;28;20437;-61
2022/11/20 02:26:49;;;;;;;38.70;30.67;;;;;;;11.92;100.00;100980.09;2071756;28;20308;-60
2022/11/20 02:27:50;;;;;;;34.07;30.37;;;;;;;12.09;100.00;101011.47;2071418;28;20961;-61
2022/11/20 02:28:51;;;;;;;34.93;30.77;;;;;;;11.96;100.00;101022.47;2072125;28;20425;-61
2022/11/20 02:30:01;;;;;;;35.73;31.57;;;;;;;11.94;100.00;101027.66;2072523;28;20563;-61
2022/11/20 02:31:02;;;;;;;34.70;30.90;;;;;;;11.93;100.00;101023.31;2073523;28;20228;-61
2022/11/20 02:32:03;;;;;;;35.03;31.17;;;;;;;11.95;100.00;101037.56;2072941;28;20440;-61
2022/11/20 02:33:03;;;;;;;35.77;31.97;;;;;;;11.87;100.00;101019.50;2072549;28;20212;-61
2022/11/20 02:34:04;;;;;;;36.80;31.30;;;;;;;11.82;100.00;101008.91;2072464;28;20197;-61
2022/11/20 02:35:18;;;;;;;39.20;31.70;;;;;;;11.89;100.00;101030.19;2072192;28;20674;-60
2022/11/20 02:36:18;;;;;;;37.97;32.67;;;;;;;11.76;100.00;101007.06;2080441;28;20192;-60
2022/11/20 02:37:19;;;;;;;36.60;32.60;;;;;;;11.67;100.00;101006.88;2079390;28;20456;-61
2022/11/20 02:38:20;;;;;;;37.80;33.50;;;;;;;11.79;100.00;101025.66;2079344;28;20318;-62
2022/11/20 02:39:24;;;;;;;39.90;32.67;;;;;;;11.00;100.00;100902.06;2079068;28;20513;-61
2022/11/20 02:40:25;;;;;;;39.00;33.13;;;;;;;11.71;100.00;101030.56;2072207;28;20629;-61
2022/11/20 02:41:34;;;;;;;40.97;34.03;;;;;;;11.59;100.00;101005.47;2073244;28;20428;-61
2022/11/20 02:42:35;;;;;;;37.47;32.13;;;;;;;11.65;100.00;101035.09;2073043;28;20206;-61
2022/11/20 02:43:36;;;;;;;36.93;32.63;;;;;;;11.67;100.00;101040.97;2072000;28;20452;-61
2022/11/20 02:44:36;;;;;;;37.23;32.57;;;;;;;11.37;100.00;101018.97;2072046;28;20440;-61
2022/11/20 02:45:37;;;;;;;38.13;33.47;;;;;;;11.62;100.00;101044.25;2072448;28;20201;-62
2022/11/20 02:46:37;;;;;;;37.53;33.03;;;;;;;11.61;100.00;101053.00;2072994;28;20566;-61
2022/11/20 02:47:38;;;;;;;37.27;31.77;;;;;;;11.26;100.00;101012.88;2072401;28;20200;-61
2022/11/20 02:48:38;;;;;;;39.37;34.63;;;;;;;11.53;100.00;101041.22;2072507;28;20208;-61
2022/11/20 02:49:39;;;;;;;38.70;33.83;;;;;;;11.52;100.00;101031.34;2071691;28;20184;-61
2022/11/20 02:50:39;;;;;;;40.93;33.87;;;;;;;11.61;100.00;101036.34;2073145;28;20406;-61
2022/11/20 02:51:40;;;;;;;40.57;34.13;;;;;;;11.68;100.00;101039.75;2072000;28;20244;-61
2022/11/20 02:52:41;;;;;;;39.50;33.73;;;;;;;11.76;100.00;101051.50;2073164;28;20379;-61
2022/11/20 02:53:41;;;;;;;37.60;33.37;;;;;;;11.72;100.00;101046.03;2072834;28;20197;-61
2022/11/20 02:54:42;;;;;;;37.37;33.40;;;;;;;11.83;100.00;101060.44;2072413;28;20440;-61
2022/11/20 02:55:42;;;;;;;37.07;33.07;;;;;;;11.89;100.00;101067.06;2072374;28;20248;-61
2022/11/20 02:56:43;;;;;;;36.03;32.10;;;;;;;11.93;100.00;101064.97;2072619;28;20610;-60
2022/11/20 02:57:43;;;;;;;35.13;31.30;;;;;;;11.98;100.00;101066.47;2072635;28;20212;-61
2022/11/20 02:58:44;;;;;;;35.17;31.47;;;;;;;11.96;100.00;101066.91;2072813;28;20191;-61
2022/11/20 02:59:44;;;;;;;35.73;31.87;;;;;;;11.85;100.00;101057.25;2072129;28;20663;-61
2022/11/20 03:00:45;;;;;;;35.90;32.03;;;;;;;11.91;100.00;101064.66;2072568;28;20193;-60
2022/11/20 03:01:45;;;;;;;37.23;33.07;;;;;;;11.92;100.00;101071.75;2071462;28;20686;-61
2022/11/20 03:02:46;;;;;;;36.10;32.30;;;;;;;11.94;100.00;101071.34;2071417;28;20224;-61
2022/11/20 03:03:48;;;;;;;34.90;31.20;;;;;;;11.92;100.00;101074.53;2072486;28;20212;-60
2022/11/20 03:04:48;;;;;;;36.87;32.30;;;;;;;11.93;100.00;101061.44;2072735;28;20190;-61
2022/11/20 03:05:49;;;;;;;35.33;31.50;;;;;;;11.93;100.00;101056.66;2071864;28;20460;-60
2022/11/20 03:06:49;;;;;;;36.73;32.20;;;;;;;11.87;100.00;101049.25;2072994;28;20193;-61
2022/11/20 03:07:50;;;;;;;36.80;32.27;;;;;;;11.86;100.00;101034.59;2072773;28;20186;-61
2022/11/20 03:08:50;;;;;;;35.43;31.47;;;;;;;11.87;100.00;101038.16;2071703;28;20273;-60
2022/11/20 03:09:51;;;;;;;35.30;30.80;;;;;;;11.86;100.00;101031.03;2072643;28;20543;-61
2022/11/20 03:10:51;;;;;;;36.43;30.67;;;;;;;11.79;100.00;101029.19;2072693;28;20739;-61
2022/11/20 03:11:51;;;;;;;38.33;31.90;;;;;;;11.55;100.00;101007.50;2072756;28;20196;-60
2022/11/20 03:12:55;;;;;;;37.70;31.97;;;;;;;11.74;100.00;101043.59;2072884;28;20288;-61
2022/11/20 03:13:56;;;;;;;39.30;32.17;;;;;;;11.81;100.00;101050.97;2071240;28;20193;-61
2022/11/20 03:14:56;;;;;;;39.40;32.30;;;;;;;11.81;100.00;101049.00;2072428;28;20417;-60
2022/11/20 03:15:57;;;;;;;36.07;30.50;;;;;;;11.92;100.00;101065.41;2072316;28;20213;-61
2022/11/20 03:16:57;;;;;;;40.70;31.10;;;;;;;11.33;100.00;100964.78;2072314;28;20193;-61
2022/11/20 03:17:58;;;;;;;40.27;31.20;;;;;;;12.03;100.00;101054.84;2072507;28;20193;-61
2022/11/20 03:18:59;;;;;;;37.57;30.20;;;;;;;12.04;100.00;101057.19;2071951;28;20196;-60
2022/11/20 03:19:59;;;;;;;37.57;29.87;;;;;;;12.01;100.00;101058.06;2071808;28;20204;-61
2022/11/20 03:21:00;;;;;;;39.23;31.57;;;;;;;12.05;100.00;101055.97;2072742;28;20432;-60
2022/11/20 03:22:00;;;;;;;38.13;29.97;;;;;;;12.07;100.00;101063.88;2072159;28;20252;-61
2022/11/20 03:23:01;;;;;;;38.43;30.97;;;;;;;11.80;100.00;101022.44;2072200;28;20225;-60
2022/11/20 03:24:02;;;;;;;37.93;30.60;;;;;;;12.15;100.00;101063.28;2072699;28;20174;-60
2022/11/20 03:25:03;;;;;;;49.03;31.37;;;;;;;12.18;100.00;101058.84;2072313;28;20197;-62
2022/11/20 03:26:20;;;;;;;40.27;31.10;;;;;;;12.22;100.00;101060.34;2071524;28;20444;-61
2022/11/20 03:27:20;;;;;;;38.57;30.40;;;;;;;12.16;100.00;101058.50;2072174;28;20201;-62
2022/11/20 03:28:21;;;;;;;37.27;29.47;;;;;;;12.05;100.00;101067.09;2072656;28;20436;-61
2022/11/20 03:29:21;;;;;;;36.53;29.00;;;;;;;12.05;100.00;101077.44;2072113;28;20198;-60
2022/11/20 03:30:22;;;;;;;39.40;30.77;;;;;;;12.09;100.00;101070.56;2072564;28;20190;-61
2022/11/20 03:31:28;;;;;;;38.53;30.80;;;;;;;12.14;100.00;101070.06;2072339;28;20184;-61
2022/11/20 03:32:29;;;;;;;36.00;29.47;;;;;;;12.16;100.00;101067.66;2073283;28;20175;-61
2022/11/20 03:33:29;;;;;;;36.00;30.53;;;;;;;12.18;100.00;101070.75;2072424;28;20992;-61
2022/11/20 03:34:29;;;;;;;36.57;29.20;;;;;;;12.14;100.00;101074.84;2072736;28;20260;-61
2022/11/20 03:35:30;;;;;;;35.33;30.50;;;;;;;12.06;100.00;101071.44;2072097;28;20182;-61
2022/11/20 03:36:30;;;;;;;40.50;30.23;;;;;;;12.05;100.00;101083.75;2071434;28;20288;-61
2022/11/20 03:37:31;;;;;;;36.77;30.57;;;;;;;12.15;100.00;101081.97;2072205;28;20251;-60
2022/11/20 03:38:32;;;;;;;37.17;31.50;;;;;;;12.15;100.00;101079.94;2072618;28;20221;-61
2022/11/20 03:39:33;;;;;;;36.47;29.93;;;;;;;12.17;100.00;101094.22;2071618;28;20193;-62
2022/11/20 03:40:34;;;;;;;36.73;29.67;;;;;;;12.20;100.00;101075.91;2072657;28;20453;-60
2022/11/20 03:41:40;;;;;;;36.87;30.20;;;;;;;12.21;100.00;101080.22;2072248;28;20174;-61
2022/11/20 03:42:47;;;;;;;40.93;30.60;;;;;;;12.22;100.00;101082.59;2071549;28;20871;-61
2022/11/20 03:43:52;;;;;;;36.17;28.90;;;;;;;12.11;100.00;101062.59;2071326;28;20567;-61
2022/11/20 03:44:52;;;;;;;37.43;30.17;;;;;;;12.21;100.00;101069.91;2072550;28;20443;-61
2022/11/20 03:45:53;;;;;;;38.67;31.47;;;;;;;12.21;100.00;101064.34;2071952;28;20440;-60
2022/11/20 03:46:53;;;;;;;37.73;30.50;;;;;;;12.19;100.00;101066.75;2072377;28;20185;-61
2022/11/20 03:47:54;;;;;;;40.43;31.40;;;;;;;12.23;100.00;101061.91;2079414;28;20185;-61
2022/11/20 03:48:54;;;;;;;37.40;29.67;;;;;;;12.28;100.00;101064.19;2079708;28;20743;-61
2022/11/20 03:49:55;;;;;;;35.67;30.30;;;;;;;12.37;100.00;101069.91;2071775;28;20189;-60
2022/11/20 03:51:10;;;;;;;36.50;30.20;;;;;;;12.35;100.00;101061.22;2072402;28;20185;-61
2022/11/20 03:52:11;;;;;;;34.93;29.17;;;;;;;12.39;100.00;101061.91;2071670;28;20241;-61
2022/11/20 03:53:11;;;;;;;33.27;28.97;;;;;;;12.41;100.00;101056.69;2072386;28;20430;-61
2022/11/20 03:54:12;;;;;;;34.00;27.73;;;;;;;12.42;100.00;101049.16;2072393;28;20694;-61
2022/11/20 03:55:12;;;;;;;32.60;28.33;;;;;;;12.40;100.00;101046.03;2072260;28;20182;-60
2022/11/20 03:56:14;;;;;;;32.97;28.17;;;;;;;12.41;100.00;101045.56;2072093;28;20228;-61
2022/11/20 03:57:15;;;;;;;32.83;27.67;;;;;;;12.42;100.00;101040.81;2072202;28;20272;-60
2022/11/20 03:58:15;;;;;;;33.07;28.87;;;;;;;12.39;100.00;101053.59;2072890;28;20433;-60
2022/11/20 03:59:16;;;;;;;35.80;28.20;;;;;;;12.28;100.00;101021.69;2072060;28;20182;-61
2022/11/20 04:00:16;;;;;;;33.00;28.60;;;;;;;12.38;100.00;101043.69;2072370;28;20193;-61
2022/11/20 04:01:20;;;;;;;33.97;28.33;;;;;;;12.25;100.00;101028.91;2071074;28;20188;-60
2022/11/20 04:02:20;;;;;;;33.63;28.27;;;;;;;11.79;100.00;100942.34;2072352;28;20201;-61
2022/11/20 04:03:21;;;;;;;33.47;29.00;;;;;;;12.55;100.00;101050.78;2072391;28;20425;-61
2022/11/20 04:04:21;;;;;;;34.23;28.60;;;;;;;12.60;100.00;101055.06;2072181;28;20668;-61
2022/11/20 04:05:22;;;;;;;33.30;27.73;;;;;;;12.61;100.00;101062.19;2071971;28;20659;-61
2022/11/20 04:06:25;;;;;;;34.03;28.23;;;;;;;12.47;100.00;101043.06;2071699;28;20192;-61
2022/11/20 04:07:25;;;;;;;33.77;27.90;;;;;;;12.64;100.00;101072.41;2071881;28;20213;-61
2022/11/20 04:08:25;;;;;;;31.57;27.63;;;;;;;12.65;100.00;101082.34;2072363;28;20503;-61
2022/11/20 04:09:26;;;;;;;30.57;26.90;;;;;;;12.65;100.00;101082.34;2072058;28;20178;-61
2022/11/20 04:10:26;;;;;;;31.80;27.10;;;;;;;12.66;100.00;101076.31;2071186;28;20217;-61
2022/11/20 04:11:32;;;;;;;32.47;27.73;;;;;;;12.65;100.00;101065.66;2072443;28;20188;-60
2022/11/20 04:12:33;;;;;;;30.90;27.60;;;;;;;12.64;100.00;101055.72;2072574;28;20174;-61
2022/11/20 04:13:33;;;;;;;29.87;26.43;;;;;;;12.62;100.00;101050.63;2072058;28;20422;-61
2022/11/20 04:14:34;;;;;;;32.97;28.27;;;;;;;12.60;100.00;101049.50;2071870;28;20466;-61
2022/11/20 04:15:34;;;;;;;32.27;28.10;;;;;;;12.62;100.00;101047.06;2071577;28;20187;-61
2022/11/20 04:16:36;;;;;;;32.80;27.67;;;;;;;11.79;100.00;100918.13;2072540;28;20220;-61
2022/11/20 04:17:36;;;;;;;34.97;28.17;;;;;;;12.65;100.00;101049.75;2072029;28;20193;-60
2022/11/20 04:18:37;;;;;;;32.97;27.43;;;;;;;12.69;100.00;101046.88;2071155;28;20515;-60
2022/11/20 04:19:37;;;;;;;32.53;27.80;;;;;;;12.69;100.00;101058.00;2071584;28;20264;-61
2022/11/20 04:20:38;;;;;;;34.80;27.60;;;;;;;12.71;100.00;101041.66;2072592;28;20186;-61
2022/11/20 04:21:38;;;;;;;30.43;27.13;;;;;;;12.53;100.00;101031.00;2072083;28;20215;-62
2022/11/20 04:22:39;;;;;;;33.53;27.43;;;;;;;12.66;100.00;101044.97;2071857;28;20572;-61
2022/11/20 04:23:39;;;;;;;33.57;27.43;;;;;;;12.65;100.00;101041.41;2072244;28;20237;-60
2022/11/20 04:24:39;;;;;;;30.63;26.83;;;;;;;12.30;100.00;100994.28;2071656;28;20268;-61
2022/11/20 04:25:40;;;;;;;31.63;27.00;;;;;;;12.65;100.00;101048.97;2070800;28;20230;-61
2022/11/20 04:26:40;;;;;;;34.87;26.77;;;;;;;11.71;100.00;100899.28;2072018;28;20624;-61
2022/11/20 04:27:41;;;;;;;30.93;26.43;;;;;;;12.54;100.00;101045.66;2071866;28;20247;-61
2022/11/20 04:28:41;;;;;;;31.60;27.30;;;;;;;12.70;100.00;101046.44;2072137;28;20312;-61
2022/11/20 04:29:41;;;;;;;34.83;27.27;;;;;;;12.72;100.00;101044.03;2072085;28;20363;-61
2022/11/20 04:30:42;;;;;;;30.73;26.57;;;;;;;12.72;100.00;101043.22;2072144;28;20723;-60
2022/11/20 04:31:43;;;;;;;31.97;26.27;;;;;;;12.70;100.00;101040.13;2071996;28;20281;-61
2022/11/20 04:32:43;;;;;;;32.17;26.17;;;;;;;12.71;100.00;101041.66;2072315;28;20683;-61
2022/11/20 04:33:44;;;;;;;30.70;26.63;;;;;;;12.72;100.00;101046.81;2071782;28;20278;-61
2022/11/20 04:34:45;;;;;;;30.33;26.63;;;;;;;12.72;100.00;101038.47;2071038;28;20182;-61
2022/11/20 04:35:47;;;;;;;30.30;26.17;;;;;;;12.07;100.00;100939.66;2071095;28;20425;-61
2022/11/20 04:36:48;;;;;;;30.97;26.17;;;;;;;12.68;100.00;101032.19;2072163;28;20240;-61
2022/11/20 04:37:51;;;;;;;32.90;27.27;;;;;;;12.38;100.00;100990.88;2071862;28;20450;-61
2022/11/20 04:39:04;;;;;;;32.03;27.00;;;;;;;12.59;100.00;101040.38;2071663;28;20235;-61
2022/11/20 04:40:05;;;;;;;34.27;27.50;;;;;;;12.59;100.00;101045.13;2071607;28;20419;-61
2022/11/20 04:41:10;;;;;;;32.27;27.33;;;;;;;12.62;100.00;101045.06;2071993;28;20436;-61
2022/11/20 04:42:29;;;;;;;32.63;27.50;;;;;;;12.58;100.00;101055.50;2072007;28;20173;-61
2022/11/20 04:43:30;;;;;;;31.57;27.07;;;;;;;12.66;100.00;101076.31;2070603;28;20797;-61